Time;durP1;ratioP1;P1;durP2;ratioP2;P2;SDS_P1;SDS_P2;PMS_P1;PMS_P2;Temp;Humidity;BMP_temperature;BMP_pressure;BME280_temperature;BME280_humidity;BME280_pressure;Samples;Min_cycle;Max_cycle;Signal;HPM_P1;HPM_P2
2021/12/01 00:00:19;;;;;;;4.07;1.20;;;3.40;99.90;;;;;;5057340;28;20809;-72
2021/12/01 00:02:55;;;;;;;7.90;1.80;;;3.40;99.90;;;;;;5061803;28;20714;-70
2021/12/01 00:05:25;;;;;;;8.10;1.67;;;3.40;99.90;;;;;;5055172;28;20645;-71
2021/12/01 00:07:52;;;;;;;6.53;2.10;;;3.40;99.90;;;;;;5057974;28;20673;-71
2021/12/01 00:10:19;;;;;;;3.47;1.30;;;3.40;99.90;;;;;;5060617;28;20763;-71
2021/12/01 00:12:45;;;;;;;3.13;1.47;;;3.40;99.90;;;;;;5056837;28;20275;-72
2021/12/01 00:15:11;;;;;;;3.83;1.33;;;3.40;99.90;;;;;;5056911;28;20190;-69
2021/12/01 00:17:36;;;;;;;4.10;1.60;;;3.40;99.90;;;;;;5057637;28;20202;-69
2021/12/01 00:20:05;;;;;;;3.47;1.37;;;3.40;99.90;;;;;;5056322;28;20185;-69
2021/12/01 00:22:30;;;;;;;2.50;1.27;;;3.40;99.90;;;;;;5054636;28;20194;-68
2021/12/01 00:24:56;;;;;;;9.00;1.73;;;3.40;99.90;;;;;;5057452;28;20190;-67
2021/12/01 00:27:21;;;;;;;4.67;1.20;;;3.40;99.90;;;;;;5061657;28;20711;-70
2021/12/01 00:29:50;;;;;;;7.17;1.70;;;3.50;99.90;;;;;;5056095;28;20644;-70
2021/12/01 00:32:17;;;;;;;6.57;1.73;;;3.40;99.90;;;;;;5058070;28;20600;-67
2021/12/01 00:34:43;;;;;;;5.93;1.43;;;3.40;99.90;;;;;;5054995;28;20305;-69
2021/12/01 00:37:09;;;;;;;7.80;1.87;;;3.40;99.90;;;;;;5054771;28;20285;-70
2021/12/01 00:39:34;;;;;;;11.87;1.77;;;3.40;99.90;;;;;;5053655;28;20195;-69
2021/12/01 00:42:00;;;;;;;8.07;1.67;;;3.40;99.90;;;;;;5057002;28;21039;-69
2021/12/01 00:44:29;;;;;;;4.03;1.70;;;3.50;99.90;;;;;;5055025;28;20695;-69
2021/12/01 00:49:27;;;;;;;6.00;1.83;;;3.50;99.90;;;;;;5055316;28;20203;-67
2021/12/01 00:51:53;;;;;;;6.07;1.97;;;3.60;99.90;;;;;;5057938;28;20198;-70
2021/12/01 00:54:18;;;;;;;8.03;2.50;;;3.60;99.90;;;;;;5057091;28;20229;-69
2021/12/01 00:56:45;;;;;;;3.07;1.70;;;3.50;99.90;;;;;;5060738;28;20236;-69
2021/12/01 00:59:11;;;;;;;12.27;2.47;;;3.50;99.90;;;;;;5059306;28;20198;-75
2021/12/01 01:01:37;;;;;;;6.13;1.77;;;3.50;99.90;;;;;;5067941;28;20195;-70
2021/12/01 01:04:03;;;;;;;3.90;1.40;;;3.50;99.90;;;;;;5057664;28;20317;-70
2021/12/01 01:06:29;;;;;;;9.97;2.77;;;3.60;99.90;;;;;;5057763;28;20201;-69
2021/12/01 01:08:54;;;;;;;4.50;1.40;;;3.60;99.90;;;;;;5058231;28;20206;-75
2021/12/01 01:16:52;;;;;;;6.80;1.87;;;3.60;99.90;;;;;;5049017;28;20198;-70
2021/12/01 01:19:19;;;;;;;7.50;1.70;;;3.60;99.90;;;;;;5058409;28;20191;-69
2021/12/01 01:21:49;;;;;;;5.10;1.97;;;3.70;99.90;;;;;;5064939;28;20452;-71
2021/12/01 01:24:15;;;;;;;3.53;1.73;;;3.70;99.90;;;;;;5059402;28;20209;-70
2021/12/01 01:26:41;;;;;;;5.43;2.50;;;3.60;99.90;;;;;;5062860;28;20337;-71
2021/12/01 01:29:07;;;;;;;5.50;1.93;;;3.60;99.90;;;;;;5059295;28;20754;-69
2021/12/01 01:31:34;;;;;;;9.13;1.80;;;3.60;99.90;;;;;;5059333;28;20194;-68
2021/12/01 01:34:00;;;;;;;11.17;2.37;;;3.50;99.90;;;;;;5056999;28;20574;-71
2021/12/01 01:36:27;;;;;;;6.70;1.63;;;3.50;99.90;;;;;;5069932;28;20195;-67
2021/12/01 01:38:53;;;;;;;9.77;2.50;;;3.50;99.90;;;;;;5060543;28;20220;-70
2021/12/01 01:41:19;;;;;;;10.23;2.23;;;3.50;99.90;;;;;;5052241;28;20572;-67
2021/12/01 01:43:47;;;;;;;6.63;1.93;;;3.50;99.90;;;;;;5063624;28;20260;-68
2021/12/01 01:46:14;;;;;;;4.83;2.10;;;3.50;99.90;;;;;;5064952;28;20538;-69
2021/12/01 01:48:49;;;;;;;7.07;2.20;;;3.50;99.90;;;;;;5058670;28;20219;-69
2021/12/01 01:51:17;;;;;;;7.03;1.80;;;3.50;99.90;;;;;;5052723;28;20198;-69
2021/12/01 01:53:44;;;;;;;12.57;2.57;;;3.50;99.90;;;;;;5060299;28;20210;-67
2021/12/01 01:56:10;;;;;;;9.77;1.70;;;3.50;99.90;;;;;;5074625;28;20215;-71
2021/12/01 01:58:36;;;;;;;7.73;1.70;;;3.60;99.90;;;;;;5048101;28;20210;-70
2021/12/01 02:01:07;;;;;;;7.13;2.47;;;3.50;99.90;;;;;;5066058;28;20235;-70
2021/12/01 02:03:38;;;;;;;8.67;1.60;;;3.60;99.90;;;;;;5055572;28;20218;-68
2021/12/01 02:06:05;;;;;;;5.60;1.93;;;3.60;99.90;;;;;;5059521;28;20171;-74
2021/12/01 02:08:32;;;;;;;4.43;1.93;;;3.70;99.90;;;;;;5065636;28;20280;-69
2021/12/01 02:10:59;;;;;;;7.93;2.53;;;3.60;99.90;;;;;;5058853;28;20194;-70
2021/12/01 02:13:26;;;;;;;10.37;2.20;;;3.60;99.90;;;;;;5053283;28;20224;-72
2021/12/01 02:15:53;;;;;;;13.43;3.27;;;3.60;99.90;;;;;;5058396;28;20277;-71
2021/12/01 02:18:19;;;;;;;8.37;2.00;;;3.50;99.90;;;;;;5067015;28;20288;-71
2021/12/01 02:21:06;;;;;;;4.97;2.07;;;3.50;99.90;;;;;;5069250;28;20653;-72
2021/12/01 02:23:34;;;;;;;6.77;2.47;;;3.50;99.90;;;;;;5055594;28;20577;-69
2021/12/01 02:25:59;;;;;;;10.70;2.63;;;3.50;99.90;;;;;;5065661;28;20653;-68
2021/12/01 02:28:25;;;;;;;8.17;3.20;;;3.50;99.90;;;;;;5066356;28;20644;-69
2021/12/01 02:30:50;;;;;;;10.20;3.30;;;3.50;99.90;;;;;;5061991;28;20200;-71
2021/12/01 02:33:16;;;;;;;9.90;2.30;;;3.50;99.90;;;;;;5067515;28;20687;-72
2021/12/01 02:35:41;;;;;;;7.60;2.83;;;3.50;99.90;;;;;;5059893;28;20269;-69
2021/12/01 02:38:07;;;;;;;9.17;2.33;;;3.60;99.90;;;;;;5057239;28;20222;-70
2021/12/01 02:40:33;;;;;;;8.83;2.13;;;3.70;99.90;;;;;;5053026;28;20190;-68
2021/12/01 02:42:59;;;;;;;12.70;2.33;;;3.80;99.90;;;;;;5059534;28;20215;-70
2021/12/01 02:45:25;;;;;;;10.27;2.40;;;3.80;99.90;;;;;;5063767;28;20185;-72
2021/12/01 02:47:50;;;;;;;13.03;2.90;;;3.90;99.90;;;;;;5059276;28;20213;-71
2021/12/01 02:50:16;;;;;;;7.30;2.17;;;3.80;99.90;;;;;;5066000;28;20182;-72
2021/12/01 02:52:42;;;;;;;9.63;2.23;;;3.80;99.90;;;;;;5072122;28;20194;-72
2021/12/01 02:55:10;;;;;;;10.50;2.63;;;3.80;99.90;;;;;;5066090;28;20190;-72
2021/12/01 02:57:45;;;;;;;5.27;1.83;;;3.80;99.90;;;;;;5054902;28;20206;-71
2021/12/01 03:00:11;;;;;;;3.23;2.13;;;3.70;99.90;;;;;;5061036;28;20663;-72
2021/12/01 03:02:38;;;;;;;9.47;1.90;;;3.70;99.90;;;;;;5070704;28;20205;-72
2021/12/01 03:05:05;;;;;;;6.87;2.53;;;3.70;99.90;;;;;;5059478;28;20178;-72
2021/12/01 03:07:32;;;;;;;9.03;2.70;;;3.70;99.90;;;;;;5060816;28;20196;-71
2021/12/01 03:09:58;;;;;;;5.80;2.07;;;3.60;99.90;;;;;;5058040;28;20806;-71
2021/12/01 03:12:28;;;;;;;14.53;2.57;;;3.60;99.90;;;;;;5057398;28;20253;-71
2021/12/01 03:14:54;;;;;;;9.83;2.73;;;3.70;99.90;;;;;;5059631;28;20299;-71
2021/12/01 03:17:19;;;;;;;7.20;2.87;;;3.70;99.90;;;;;;5058017;28;20657;-71
2021/12/01 03:19:45;;;;;;;8.03;2.57;;;3.80;99.90;;;;;;5054316;28;20653;-72
2021/12/01 03:22:14;;;;;;;6.50;1.87;;;3.90;99.90;;;;;;5063710;28;20196;-72
2021/12/01 03:24:40;;;;;;;13.10;3.40;;;3.80;99.90;;;;;;5061013;28;20213;-66
2021/12/01 03:27:06;;;;;;;9.33;3.37;;;3.80;99.90;;;;;;5057295;28;20193;-66
2021/12/01 03:29:31;;;;;;;13.53;2.63;;;3.80;99.90;;;;;;5049244;28;20740;-69
2021/12/01 03:31:57;;;;;;;6.20;2.03;;;3.80;99.90;;;;;;5068152;28;20198;-68
2021/12/01 03:34:23;;;;;;;14.20;3.30;;;3.90;99.90;;;;;;5053444;28;20220;-68
2021/12/01 03:36:49;;;;;;;8.37;2.53;;;4.00;99.90;;;;;;5073894;28;20205;-68
2021/12/01 03:39:14;;;;;;;4.27;1.77;;;3.90;99.90;;;;;;5056974;28;20306;-67
2021/12/01 03:41:40;;;;;;;10.50;2.50;;;3.90;99.90;;;;;;5061608;28;20601;-67
2021/12/01 03:44:06;;;;;;;5.63;2.57;;;3.90;99.90;;;;;;5051055;28;20615;-69
2021/12/01 03:46:32;;;;;;;8.23;1.97;;;4.00;99.90;;;;;;5068288;28;20289;-68
2021/12/01 03:48:57;;;;;;;8.70;1.77;;;4.00;99.90;;;;;;5063023;28;20303;-67
2021/12/01 03:51:23;;;;;;;12.13;3.07;;;4.00;99.90;;;;;;5078571;28;20201;-69
2021/12/01 03:53:49;;;;;;;13.50;2.80;;;3.90;99.90;;;;;;5059064;28;20210;-66
2021/12/01 03:56:16;;;;;;;6.47;2.33;;;4.00;99.90;;;;;;5048457;28;20329;-68
2021/12/01 03:58:41;;;;;;;9.90;2.90;;;4.00;99.90;;;;;;5070160;28;20204;-68
2021/12/01 04:01:11;;;;;;;7.43;2.17;;;4.00;99.90;;;;;;5073076;28;20200;-67
2021/12/01 04:03:36;;;;;;;5.83;2.30;;;4.00;99.90;;;;;;5059143;28;20207;-68
2021/12/01 04:06:02;;;;;;;8.17;2.17;;;4.10;99.90;;;;;;5082292;28;20283;-67
2021/12/01 04:08:27;;;;;;;6.83;2.07;;;4.10;99.90;;;;;;5059550;28;20668;-67
2021/12/01 04:10:53;;;;;;;13.07;3.03;;;4.10;99.90;;;;;;5072064;28;20252;-66
2021/12/01 04:13:18;;;;;;;6.40;2.03;;;4.10;99.90;;;;;;5066154;28;20214;-66
2021/12/01 04:15:44;;;;;;;11.17;3.73;;;4.10;99.90;;;;;;5084762;28;20336;-67
2021/12/01 04:18:09;;;;;;;7.80;2.07;;;4.20;99.90;;;;;;5063289;28;20203;-68
2021/12/01 04:20:35;;;;;;;7.60;2.43;;;4.20;99.90;;;;;;5064002;28;20279;-67
2021/12/01 04:23:01;;;;;;;4.30;1.83;;;4.20;99.90;;;;;;5057424;28;20309;-69
2021/12/01 04:25:26;;;;;;;14.70;2.70;;;4.20;99.90;;;;;;5083088;28;20220;-75
2021/12/01 04:27:53;;;;;;;5.47;2.07;;;4.30;99.90;;;;;;5068447;28;20202;-67
2021/12/01 04:30:19;;;;;;;6.93;2.83;;;4.30;99.90;;;;;;5080211;28;20837;-66
2021/12/01 04:32:46;;;;;;;5.10;2.23;;;4.30;99.90;;;;;;5073013;28;20220;-65
2021/12/01 04:35:15;;;;;;;12.20;3.87;;;4.20;99.90;;;;;;5059758;28;20178;-66
2021/12/01 04:37:40;;;;;;;13.27;2.77;;;4.20;99.90;;;;;;5066381;28;20206;-66
2021/12/01 04:40:07;;;;;;;11.00;3.13;;;4.20;99.90;;;;;;5057504;28;20183;-66
2021/12/01 04:42:32;;;;;;;9.73;2.70;;;4.20;99.90;;;;;;5070939;28;20247;-68
2021/12/01 04:44:58;;;;;;;13.40;2.80;;;4.20;99.90;;;;;;5056127;28;20182;-67
2021/12/01 04:47:28;;;;;;;7.00;3.10;;;4.20;99.90;;;;;;5063894;28;20771;-66
2021/12/01 04:49:55;;;;;;;7.50;3.37;;;4.20;99.90;;;;;;5056818;28;20182;-67
2021/12/01 04:52:21;;;;;;;4.27;2.03;;;4.20;99.90;;;;;;5064481;28;20191;-67
2021/12/01 04:54:46;;;;;;;6.97;2.30;;;4.20;99.90;;;;;;5055642;28;20267;-67
2021/12/01 04:57:12;;;;;;;8.80;3.07;;;4.20;99.90;;;;;;5073377;28;20198;-67
2021/12/01 04:59:37;;;;;;;6.33;2.30;;;4.20;99.90;;;;;;5065437;28;20178;-67
2021/12/01 05:02:03;;;;;;;9.13;3.60;;;4.20;99.90;;;;;;5065629;28;20201;-67
2021/12/01 05:04:29;;;;;;;8.90;2.80;;;4.10;99.90;;;;;;5059700;28;20247;-66
2021/12/01 05:06:55;;;;;;;8.77;1.93;;;4.20;99.90;;;;;;5071806;28;20190;-66
2021/12/01 05:09:20;;;;;;;9.27;2.07;;;4.20;99.90;;;;;;5051139;28;20194;-66
2021/12/01 05:11:46;;;;;;;7.57;2.27;;;4.20;99.90;;;;;;5077654;28;20711;-68
2021/12/01 05:14:13;;;;;;;7.30;2.50;;;4.10;99.90;;;;;;5054155;28;20743;-67
2021/12/01 05:16:40;;;;;;;5.73;2.87;;;4.10;99.90;;;;;;5084182;28;20226;-66
2021/12/01 05:19:07;;;;;;;6.67;2.97;;;4.20;99.90;;;;;;5060411;28;20203;-65
2021/12/01 05:21:33;;;;;;;12.50;3.50;;;4.20;99.90;;;;;;5075173;28;20735;-66
2021/12/01 05:23:59;;;;;;;8.70;2.80;;;4.20;99.90;;;;;;5066060;28;20202;-67
2021/12/01 05:26:25;;;;;;;5.57;2.50;;;4.20;99.90;;;;;;5073586;28;20983;-67
2021/12/01 05:28:50;;;;;;;7.37;2.40;;;4.20;99.90;;;;;;5058430;28;20203;-68
2021/12/01 05:31:16;;;;;;;10.17;2.53;;;4.30;99.90;;;;;;5085755;28;20295;-66
2021/12/01 05:33:42;;;;;;;7.63;2.33;;;4.20;99.90;;;;;;5058480;28;20359;-68
2021/12/01 05:36:08;;;;;;;5.20;1.87;;;4.20;99.90;;;;;;5078916;28;20300;-67
2021/12/01 05:38:34;;;;;;;6.63;2.13;;;4.20;99.90;;;;;;5056753;28;20629;-66
2021/12/01 05:41:02;;;;;;;6.13;2.13;;;4.20;99.90;;;;;;5076982;28;20193;-67
2021/12/01 05:43:28;;;;;;;10.07;2.00;;;4.20;99.90;;;;;;5062125;28;20229;-66
2021/12/01 05:45:54;;;;;;;7.03;2.33;;;4.20;99.90;;;;;;5085637;28;20192;-67
2021/12/01 05:48:19;;;;;;;12.70;3.10;;;4.20;99.90;;;;;;5052556;28;20207;-67
2021/12/01 05:50:45;;;;;;;7.43;2.10;;;4.20;99.90;;;;;;5081953;28;20198;-67
2021/12/01 05:53:10;;;;;;;8.27;3.47;;;4.20;99.90;;;;;;5063377;28;20213;-68
2021/12/01 05:55:40;;;;;;;1.53;1.43;;;4.20;99.90;;;;;;5079443;28;20236;-68
2021/12/01 05:58:06;;;;;;;8.67;2.37;;;4.30;99.90;;;;;;5065593;28;20202;-67
2021/12/01 06:00:31;;;;;;;8.33;3.83;;;4.30;99.90;;;;;;5081929;28;20197;-67
2021/12/01 06:02:57;;;;;;;7.33;2.93;;;4.30;99.90;;;;;;5067351;28;20202;-67
2021/12/01 06:05:23;;;;;;;5.57;3.03;;;4.30;99.90;;;;;;5076437;28;20190;-68
2021/12/01 06:07:49;;;;;;;5.77;2.53;;;4.30;99.90;;;;;;5077673;28;20198;-67
2021/12/01 06:10:15;;;;;;;7.23;2.87;;;4.30;99.90;;;;;;5082419;28;20198;-67
2021/12/01 06:12:42;;;;;;;3.67;2.43;;;4.30;99.90;;;;;;5072181;28;20218;-67
2021/12/01 06:15:10;;;;;;;8.10;3.40;;;4.30;99.90;;;;;;5053222;28;20309;-67
2021/12/01 06:17:36;;;;;;;5.33;2.60;;;4.40;99.90;;;;;;5066621;28;20206;-68
2021/12/01 06:20:03;;;;;;;5.17;2.80;;;4.30;99.90;;;;;;5054678;28;20209;-68
2021/12/01 06:22:29;;;;;;;6.17;2.50;;;4.40;99.90;;;;;;5060753;28;20255;-68
2021/12/01 06:24:54;;;;;;;4.77;3.13;;;4.30;99.90;;;;;;5062128;28;20222;-68
2021/12/01 06:27:20;;;;;;;5.67;2.63;;;4.40;99.90;;;;;;5074475;28;20268;-67
2021/12/01 06:29:45;;;;;;;4.80;2.87;;;4.40;99.90;;;;;;5054180;28;20266;-67
2021/12/01 06:32:11;;;;;;;6.63;2.33;;;4.40;99.90;;;;;;5075922;28;20209;-67
2021/12/01 06:34:36;;;;;;;8.20;3.13;;;4.50;99.90;;;;;;5050802;28;20221;-67
2021/12/01 06:37:02;;;;;;;5.67;2.60;;;4.50;99.90;;;;;;5077690;28;20239;-67
2021/12/01 06:39:27;;;;;;;3.23;2.33;;;4.50;99.90;;;;;;5057160;28;20190;-68
2021/12/01 06:41:54;;;;;;;2.60;2.40;;;4.50;99.90;;;;;;5058032;28;20285;-66
2021/12/01 06:44:20;;;;;;;2.60;2.07;;;4.60;99.90;;;;;;5053884;28;20197;-68
2021/12/01 06:46:46;;;;;;;5.50;3.00;;;4.60;99.90;;;;;;5068544;28;20198;-68
2021/12/01 06:49:11;;;;;;;3.17;2.33;;;4.60;99.90;;;;;;5044183;28;20615;-67
2021/12/01 06:51:37;;;;;;;3.07;2.33;;;4.60;99.90;;;;;;5073945;28;20194;-68
2021/12/01 06:54:03;;;;;;;4.80;2.70;;;4.60;99.90;;;;;;5055665;28;20310;-67
2021/12/01 06:56:28;;;;;;;4.00;3.17;;;4.60;99.90;;;;;;5074869;28;20210;-67
2021/12/01 06:58:54;;;;;;;2.87;2.67;;;4.60;99.90;;;;;;5052917;28;20278;-67
2021/12/01 07:01:19;;;;;;;4.33;2.97;;;4.60;99.90;;;;;;5072475;28;20269;-67
2021/12/01 07:03:45;;;;;;;2.40;2.30;;;4.60;99.90;;;;;;5054350;28;20236;-67
2021/12/01 07:06:10;;;;;;;3.23;2.50;;;4.60;99.90;;;;;;5062785;28;20278;-67
2021/12/01 07:08:37;;;;;;;3.37;2.40;;;4.60;99.90;;;;;;5054204;28;20616;-67
2021/12/01 07:11:04;;;;;;;5.67;3.83;;;4.70;99.90;;;;;;5081684;28;20383;-66
2021/12/01 07:13:32;;;;;;;4.60;3.40;;;4.80;99.90;;;;;;5058114;28;20225;-66
2021/12/01 07:15:58;;;;;;;3.93;3.43;;;4.90;99.90;;;;;;5076090;28;20193;-67
2021/12/01 07:18:23;;;;;;;5.23;3.63;;;4.90;99.90;;;;;;5057088;28;20211;-66
2021/12/01 07:20:52;;;;;;;3.87;3.37;;;4.90;99.90;;;;;;5080849;28;20201;-67
2021/12/01 07:23:17;;;;;;;4.43;3.67;;;4.90;99.90;;;;;;5059002;28;20207;-66
2021/12/01 07:25:43;;;;;;;4.17;3.77;;;4.90;99.90;;;;;;5062189;28;20562;-68
2021/12/01 07:28:09;;;;;;;4.20;3.80;;;4.90;99.90;;;;;;5083335;28;20205;-67
2021/12/01 07:30:35;;;;;;;4.83;4.43;;;4.90;99.90;;;;;;5068787;28;20190;-67
2021/12/01 07:33:01;;;;;;;4.90;3.97;;;5.00;99.90;;;;;;5068005;28;20207;-66
2021/12/01 07:35:27;;;;;;;5.30;4.80;;;5.00;99.90;;;;;;5083653;28;20269;-67
2021/12/01 07:37:53;;;;;;;4.77;4.37;;;5.10;99.90;;;;;;5073721;28;20297;-67
2021/12/01 07:40:19;;;;;;;5.47;3.93;;;5.10;99.90;;;;;;5071589;28;20189;-66
2021/12/01 07:42:45;;;;;;;5.20;4.70;;;5.10;99.90;;;;;;5064073;28;20198;-67
2021/12/01 07:45:11;;;;;;;6.73;5.37;;;5.20;99.90;;;;;;5054867;28;20204;-66
2021/12/01 07:47:36;;;;;;;8.67;5.13;;;5.20;99.90;;;;;;5075961;28;20198;-66
2021/12/01 07:50:04;;;;;;;4.83;4.40;;;5.30;99.90;;;;;;5055785;28;20213;-66
2021/12/01 07:52:32;;;;;;;5.93;5.43;;;5.30;99.90;;;;;;5080384;28;20247;-67
2021/12/01 07:54:59;;;;;;;5.37;4.87;;;5.40;99.90;;;;;;5051714;28;20631;-66
2021/12/01 07:57:24;;;;;;;5.90;5.37;;;5.50;99.90;;;;;;5077544;28;21028;-66
2021/12/01 07:59:50;;;;;;;5.50;4.97;;;5.60;99.90;;;;;;5056589;28;20183;-67
2021/12/01 08:02:16;;;;;;;6.53;5.07;;;5.60;99.90;;;;;;5068280;28;20219;-66
2021/12/01 08:04:42;;;;;;;5.40;4.90;;;5.70;99.90;;;;;;5058967;28;20197;-65
2021/12/01 08:07:08;;;;;;;5.17;4.77;;;5.80;99.90;;;;;;5086206;28;20268;-66
2021/12/01 08:09:34;;;;;;;5.57;5.17;;;5.80;99.90;;;;;;5064753;28;20703;-65
2021/12/01 08:12:00;;;;;;;5.60;4.70;;;5.90;99.90;;;;;;5077501;28;20234;-65
2021/12/01 08:14:26;;;;;;;4.93;4.53;;;5.90;99.90;;;;;;5065100;28;20222;-64
2021/12/01 08:16:52;;;;;;;5.33;4.83;;;5.90;99.90;;;;;;5078041;28;20201;-65
2021/12/01 08:19:19;;;;;;;5.13;4.73;;;6.00;99.90;;;;;;5073695;28;20174;-65
2021/12/01 08:21:47;;;;;;;4.87;4.47;;;6.00;99.90;;;;;;5067994;28;20201;-65
2021/12/01 08:24:14;;;;;;;5.90;5.40;;;6.10;99.90;;;;;;5059991;28;20215;-65
2021/12/01 08:26:42;;;;;;;6.13;4.83;;;6.10;99.90;;;;;;5066722;28;20198;-65
2021/12/01 08:29:08;;;;;;;5.30;4.90;;;6.10;99.90;;;;;;5051880;28;20230;-65
2021/12/01 08:31:34;;;;;;;6.27;5.77;;;6.10;99.90;;;;;;5069563;28;20645;-68
2021/12/01 08:34:00;;;;;;;5.70;4.70;;;6.20;99.90;;;;;;5065959;28;20217;-66
2021/12/01 08:36:25;;;;;;;5.67;5.27;;;6.20;99.90;;;;;;5074309;28;20404;-65
2021/12/01 08:38:51;;;;;;;5.23;4.57;;;6.20;99.90;;;;;;5058949;28;20198;-65
2021/12/01 08:41:17;;;;;;;5.97;5.47;;;6.30;99.90;;;;;;5076082;28;20197;-65
2021/12/01 08:43:43;;;;;;;5.80;5.20;;;6.30;99.90;;;;;;5053093;28;20210;-65
2021/12/01 08:46:09;;;;;;;5.67;5.17;;;6.30;99.90;;;;;;5086255;28;20190;-66
2021/12/01 08:48:36;;;;;;;6.27;5.67;;;6.40;99.90;;;;;;5056749;28;20252;-66
2021/12/01 08:51:03;;;;;;;3.93;3.60;;;6.40;99.90;;;;;;5059106;28;20274;-66
2021/12/01 08:53:30;;;;;;;5.80;5.30;;;6.40;99.90;;;;;;5066758;28;20783;-65
2021/12/01 08:55:57;;;;;;;4.90;4.50;;;6.50;99.90;;;;;;5079287;28;20202;-64
2021/12/01 08:58:23;;;;;;;5.53;4.67;;;6.50;99.90;;;;;;5064445;28;20212;-64
2021/12/01 09:00:49;;;;;;;4.57;4.23;;;6.50;99.90;;;;;;5078944;28;20221;-63
2021/12/01 09:03:17;;;;;;;4.87;4.40;;;6.50;99.90;;;;;;5065896;28;20203;-65
2021/12/01 09:05:47;;;;;;;5.07;4.57;;;6.50;99.90;;;;;;5065938;28;20212;-65
2021/12/01 09:08:15;;;;;;;3.80;3.50;;;6.60;99.90;;;;;;5067962;28;20344;-64
2021/12/01 09:10:41;;;;;;;3.73;3.43;;;6.50;99.90;;;;;;5077523;28;20308;-64
2021/12/01 09:13:07;;;;;;;5.47;3.67;;;6.50;99.90;;;;;;5056508;28;20340;-64
2021/12/01 09:15:33;;;;;;;3.63;3.33;;;6.50;99.90;;;;;;5064506;28;20297;-63
2021/12/01 09:18:00;;;;;;;2.80;2.60;;;6.50;99.90;;;;;;5056741;28;20205;-64
2021/12/01 09:20:25;;;;;;;3.20;3.00;;;6.50;99.90;;;;;;5057447;28;20210;-62
2021/12/01 09:22:51;;;;;;;4.30;3.27;;;6.50;99.90;;;;;;5058226;28;20194;-62
2021/12/01 09:25:17;;;;;;;3.00;2.80;;;6.50;99.90;;;;;;5052697;28;20262;-62
2021/12/01 09:27:45;;;;;;;3.43;3.13;;;6.50;99.90;;;;;;5069906;28;20211;-67
2021/12/01 09:30:12;;;;;;;3.10;2.83;;;6.50;99.90;;;;;;5048371;28;20331;-64
2021/12/01 09:32:38;;;;;;;2.67;2.43;;;6.50;99.90;;;;;;5054200;28;20721;-66
2021/12/01 09:35:09;;;;;;;3.80;1.93;;;6.50;99.90;;;;;;5059320;28;20261;-64
2021/12/01 09:37:35;;;;;;;2.83;2.37;;;6.60;99.90;;;;;;5054436;28;20259;-63
2021/12/01 09:40:04;;;;;;;3.93;2.40;;;6.50;99.90;;;;;;5065155;28;20206;-63
2021/12/01 09:42:31;;;;;;;3.90;1.90;;;6.50;99.90;;;;;;5057018;28;20202;-64
2021/12/01 09:44:56;;;;;;;4.83;2.57;;;6.60;99.90;;;;;;5066715;28;20194;-63
2021/12/01 09:47:24;;;;;;;2.87;2.00;;;6.60;99.90;;;;;;5065024;28;20213;-63
2021/12/01 09:49:50;;;;;;;2.00;1.90;;;6.70;99.90;;;;;;5072220;28;20626;-64
2021/12/01 09:52:18;;;;;;;2.63;2.43;;;6.70;99.90;;;;;;5058952;28;20226;-64
2021/12/01 09:54:44;;;;;;;1.97;1.83;;;6.70;99.90;;;;;;5055121;28;20207;-64
2021/12/01 09:57:14;;;;;;;2.50;2.30;;;6.80;99.90;;;;;;5063218;28;20225;-65
2021/12/01 09:59:41;;;;;;;2.50;2.30;;;6.80;99.90;;;;;;5059072;28;20198;-66
2021/12/01 10:02:07;;;;;;;2.17;1.97;;;6.80;99.90;;;;;;5056789;28;20277;-67
2021/12/01 10:04:33;;;;;;;2.40;2.20;;;6.80;99.90;;;;;;5060198;28;20656;-66
2021/12/01 10:07:18;;;;;;;4.00;2.20;;;6.80;99.90;;;;;;5057818;28;20202;-65
2021/12/01 10:09:46;;;;;;;2.10;2.00;;;6.90;99.90;;;;;;5055500;28;20185;-64
2021/12/01 10:12:13;;;;;;;4.67;2.30;;;6.90;99.90;;;;;;5057755;28;20723;-68
2021/12/01 10:14:47;;;;;;;2.43;2.23;;;7.00;99.90;;;;;;5060114;28;20210;-66
2021/12/01 10:17:13;;;;;;;1.83;1.70;;;6.90;99.90;;;;;;5053007;28;20219;-67
2021/12/01 10:19:39;;;;;;;1.50;1.40;;;7.00;99.90;;;;;;5057002;28;20182;-67
2021/12/01 10:22:10;;;;;;;2.33;2.13;;;7.00;99.90;;;;;;5054973;28;20567;-67
2021/12/01 10:24:38;;;;;;;1.87;1.77;;;7.00;99.90;;;;;;5057931;28;20209;-66
2021/12/01 10:27:10;;;;;;;5.90;3.53;;;7.00;99.90;;;;;;5059811;28;20203;-66
2021/12/01 10:29:42;;;;;;;6.73;4.80;;;7.10;99.90;;;;;;5057350;28;20273;-67
2021/12/01 10:32:08;;;;;;;2.60;2.40;;;7.00;99.90;;;;;;5059939;28;20294;-68
2021/12/01 10:34:43;;;;;;;5.63;3.33;;;7.00;99.90;;;;;;5059177;28;20411;-67
2021/12/01 10:37:26;;;;;;;2.77;2.30;;;7.10;99.90;;;;;;5056764;28;20205;-66
2021/12/01 10:40:04;;;;;;;7.43;3.40;;;7.20;99.90;;;;;;5050723;28;20183;-67
2021/12/01 10:42:31;;;;;;;3.73;2.50;;;7.10;99.90;;;;;;5050310;28;20205;-66
2021/12/01 10:45:06;;;;;;;5.63;3.07;;;7.20;99.90;;;;;;5069310;28;20186;-67
2021/12/01 10:47:43;;;;;;;3.40;2.37;;;7.20;99.90;;;;;;5049143;28;20212;-68
2021/12/01 10:50:18;;;;;;;9.03;2.93;;;7.20;99.90;;;;;;5060473;28;20268;-67
2021/12/01 10:52:50;;;;;;;2.93;2.10;;;7.20;99.90;;;;;;5062521;28;20202;-67
2021/12/01 10:55:24;;;;;;;3.20;2.50;;;7.20;99.90;;;;;;5063785;28;20536;-66
2021/12/01 10:57:55;;;;;;;2.57;2.37;;;7.20;99.90;;;;;;5056715;28;20516;-66
2021/12/01 11:00:30;;;;;;;2.60;2.40;;;7.20;99.90;;;;;;5070009;28;20273;-65
2021/12/01 11:03:07;;;;;;;3.20;1.90;;;7.20;99.90;;;;;;5058345;28;20189;-67
2021/12/01 11:05:39;;;;;;;2.93;2.73;;;7.10;99.90;;;;;;5058033;28;20186;-67
2021/12/01 11:08:19;;;;;;;3.73;2.13;;;7.10;99.90;;;;;;5058231;28;20542;-68
2021/12/01 11:10:53;;;;;;;2.23;2.00;;;7.00;99.90;;;;;;5061621;28;20285;-67
2021/12/01 11:13:20;;;;;;;2.13;1.93;;;7.10;99.90;;;;;;5057823;28;20207;-66
2021/12/01 11:15:57;;;;;;;2.10;2.00;;;7.10;99.90;;;;;;5066715;28;20190;-66
2021/12/01 11:18:28;;;;;;;2.70;2.53;;;7.10;99.90;;;;;;5061153;28;20193;-66
2021/12/01 11:20:58;;;;;;;2.87;2.67;;;7.10;99.90;;;;;;5071974;28;20195;-66
2021/12/01 11:23:26;;;;;;;3.00;2.80;;;7.10;99.90;;;;;;5063132;28;20274;-65
2021/12/01 11:25:56;;;;;;;2.57;2.47;;;7.10;99.90;;;;;;5071110;28;20221;-65
2021/12/01 11:28:25;;;;;;;3.13;2.83;;;7.10;99.90;;;;;;5059791;28;20205;-65
2021/12/01 11:30:53;;;;;;;3.00;2.80;;;7.10;99.90;;;;;;5061520;28;20242;-65
2021/12/01 11:33:20;;;;;;;3.37;3.07;;;7.10;99.90;;;;;;5058791;28;20552;-66
2021/12/01 11:35:50;;;;;;;2.30;2.20;;;7.10;99.90;;;;;;5056749;28;20347;-66
2021/12/01 11:38:17;;;;;;;3.93;3.73;;;7.10;99.90;;;;;;5057790;28;20164;-66
2021/12/01 11:40:43;;;;;;;3.00;2.80;;;7.20;99.90;;;;;;5061736;28;20186;-67
2021/12/01 11:43:11;;;;;;;2.70;2.50;;;7.20;99.90;;;;;;5057493;28;20542;-66
2021/12/01 11:45:38;;;;;;;2.20;2.10;;;7.20;99.90;;;;;;5057717;28;20190;-67
2021/12/01 11:48:09;;;;;;;3.73;2.53;;;7.20;99.90;;;;;;5061418;28;20190;-65
2021/12/01 11:50:55;;;;;;;2.90;2.43;;;7.20;99.90;;;;;;5058021;28;20201;-72
2021/12/01 11:53:22;;;;;;;2.30;2.10;;;7.20;99.90;;;;;;5058457;28;20366;-72
2021/12/01 11:56:00;;;;;;;2.03;1.93;;;7.30;99.90;;;;;;5058257;28;20206;-72
2021/12/01 11:58:41;;;;;;;2.40;1.90;;;7.30;99.90;;;;;;5058997;28;20182;-73
2021/12/01 12:01:35;;;;;;;1.87;1.77;;;7.30;99.90;;;;;;5051021;28;20313;-73
2021/12/01 12:04:01;;;;;;;2.00;1.90;;;7.30;99.90;;;;;;5057356;28;20207;-71
2021/12/01 12:06:32;;;;;;;1.90;1.80;;;7.40;99.90;;;;;;5061778;28;20178;-84
2021/12/01 12:08:59;;;;;;;1.80;1.70;;;7.40;99.90;;;;;;5058874;28;20596;-73
2021/12/01 12:11:55;;;;;;;1.97;1.87;;;7.40;99.90;;;;;;5055916;28;20225;-73
2021/12/01 12:14:26;;;;;;;1.70;1.60;;;7.40;99.90;;;;;;5052955;28;20332;-73
2021/12/01 12:17:03;;;;;;;4.60;1.90;;;7.40;99.90;;;;;;5033086;28;20193;-74
2021/12/01 12:19:47;;;;;;;1.60;1.50;;;7.40;99.90;;;;;;5042279;28;20226;-74
2021/12/01 12:22:32;;;;;;;1.43;1.40;;;7.50;99.90;;;;;;5057939;28;20194;-75
2021/12/01 12:24:59;;;;;;;2.83;2.10;;;7.50;99.90;;;;;;5037486;28;20639;-75
2021/12/01 12:27:32;;;;;;;1.60;1.50;;;7.60;99.90;;;;;;5060271;28;20666;-75
2021/12/01 12:30:04;;;;;;;1.77;1.67;;;7.60;99.90;;;;;;5040899;28;20703;-72
2021/12/01 12:32:30;;;;;;;2.00;1.70;;;7.60;99.90;;;;;;5040967;28;20191;-72
2021/12/01 12:35:03;;;;;;;1.20;1.20;;;7.60;99.90;;;;;;5042083;28;20218;-72
2021/12/01 12:37:31;;;;;;;1.57;1.47;;;7.60;99.90;;;;;;5041293;28;20255;-75
2021/12/01 12:39:59;;;;;;;1.40;1.30;;;7.60;99.90;;;;;;5039250;28;20225;-74
2021/12/01 12:42:28;;;;;;;1.57;1.27;;;7.60;99.90;;;;;;5034993;28;20222;-74
2021/12/01 12:44:59;;;;;;;1.37;1.27;;;7.70;99.90;;;;;;5032924;28;20591;-74
2021/12/01 12:47:40;;;;;;;4.17;1.60;;;7.60;99.90;;;;;;5039917;28;20261;-73
2021/12/01 12:50:23;;;;;;;1.87;1.30;;;7.70;99.90;;;;;;5038731;28;20574;-74
2021/12/01 12:52:54;;;;;;;1.37;1.30;;;7.80;99.90;;;;;;5039955;28;20185;-75
2021/12/01 12:55:26;;;;;;;1.57;1.47;;;7.80;99.90;;;;;;5040805;28;20201;-74
2021/12/01 12:57:58;;;;;;;1.63;1.53;;;7.90;99.90;;;;;;5043147;28;20182;-74
2021/12/01 13:00:28;;;;;;;1.07;1.00;;;7.80;99.90;;;;;;5043423;28;20207;-76
2021/12/01 13:03:16;;;;;;;1.23;1.17;;;7.80;99.90;;;;;;5045301;28;20186;-74
2021/12/01 13:05:42;;;;;;;1.23;1.23;;;7.80;99.90;;;;;;5045301;28;20215;-73